createdAt,value
2023-05-22T00:01:43.330Z,15.16
2023-05-22T00:04:30.189Z,15.07
2023-05-22T00:07:16.030Z,14.83
2023-05-22T00:10:02.221Z,14.98
2023-05-22T00:12:47.743Z,14.93
2023-05-22T00:15:34.014Z,14.98
2023-05-22T00:18:19.609Z,15.00
2023-05-22T00:21:05.337Z,14.92
2023-05-22T00:23:51.010Z,14.72
2023-05-22T00:26:37.272Z,14.55
2023-05-22T00:29:23.867Z,14.65
2023-05-22T00:32:10.147Z,15.02
2023-05-22T00:34:55.905Z,14.91
2023-05-22T00:37:41.971Z,15.19
2023-05-22T00:40:27.449Z,15.16
2023-05-22T00:43:13.401Z,15.13
2023-05-22T00:45:59.126Z,15.33
2023-05-22T00:48:46.342Z,15.43
2023-05-22T00:51:32.228Z,15.43
2023-05-22T00:54:18.084Z,15.51
2023-05-22T00:57:04.838Z,15.47
2023-05-22T00:59:51.263Z,15.29
2023-05-22T01:02:38.202Z,15.24
2023-05-22T01:05:25.639Z,15.20
2023-05-22T01:08:12.094Z,15.14
2023-05-22T01:11:03.603Z,15.18
2023-05-22T01:13:57.146Z,15.10
2023-05-22T01:16:54.794Z,15.19
2023-05-22T01:20:01.635Z,15.07
2023-05-22T01:23:03.747Z,15.19
2023-05-22T01:26:08.037Z,15.26
2023-05-22T01:29:04.820Z,15.18
2023-05-22T01:31:51.569Z,15.08
2023-05-22T01:34:38.567Z,14.98
2023-05-22T01:37:24.968Z,15.10
2023-05-22T01:40:12.340Z,15.12
2023-05-22T01:42:58.572Z,14.97
2023-05-22T01:45:44.821Z,15.11
2023-05-22T01:48:30.868Z,14.89
2023-05-22T01:51:54.103Z,15.07
2023-05-22T01:54:50.415Z,15.10
2023-05-22T01:58:27.397Z,15.22
2023-05-22T02:01:14.499Z,15.11
2023-05-22T02:04:01.761Z,15.10
2023-05-22T02:06:47.997Z,15.06
2023-05-22T02:09:35.114Z,14.92
2023-05-22T02:12:21.667Z,14.52
2023-05-22T02:15:08.616Z,14.49
2023-05-22T02:17:54.512Z,14.62
2023-05-22T02:20:41.376Z,14.47
2023-05-22T02:23:29.753Z,14.48
2023-05-22T02:26:15.927Z,14.42
2023-05-22T02:29:01.619Z,14.32
2023-05-22T02:31:47.586Z,14.21
2023-05-22T02:34:34.131Z,14.07
2023-05-22T02:37:20.842Z,14.12
2023-05-22T02:40:07.112Z,14.00
2023-05-22T02:42:53.295Z,14.03
2023-05-22T02:45:39.586Z,14.07
2023-05-22T02:48:25.614Z,14.37
2023-05-22T02:51:11.938Z,14.41
2023-05-22T02:53:58.509Z,14.45
2023-05-22T02:56:44.331Z,14.43
2023-05-22T02:59:30.128Z,14.73
2023-05-22T03:02:16.588Z,14.80
2023-05-22T03:05:02.968Z,14.89
2023-05-22T03:07:49.189Z,14.98
2023-05-22T03:10:34.810Z,14.83
2023-05-22T03:13:20.602Z,14.58
2023-05-22T03:16:07.035Z,14.56
2023-05-22T03:19:11.476Z,14.35
2023-05-22T03:21:58.160Z,14.66
2023-05-22T03:24:44.221Z,14.52
2023-05-22T03:27:30.202Z,14.81
2023-05-22T03:30:16.366Z,14.85
2023-05-22T03:33:11.741Z,15.04
2023-05-22T03:35:58.864Z,14.96
2023-05-22T03:38:45.332Z,14.76
2023-05-22T03:41:31.332Z,14.82
2023-05-22T03:44:17.860Z,14.71
2023-05-22T03:47:03.489Z,14.71
2023-05-22T03:49:50.464Z,14.52
2023-05-22T03:52:36.298Z,14.68
2023-05-22T03:55:23.006Z,14.63
2023-05-22T03:58:08.669Z,14.80
2023-05-22T04:01:01.060Z,14.58
2023-05-22T04:03:47.480Z,14.97
2023-05-22T04:06:34.258Z,15.19
2023-05-22T04:09:19.860Z,15.53
2023-05-22T04:12:07.163Z,15.79
2023-05-22T04:14:52.880Z,15.86
2023-05-22T04:17:40.385Z,15.96
2023-05-22T04:20:26.916Z,16.07
2023-05-22T04:23:13.407Z,16.23
2023-05-22T04:26:02.332Z,16.44
2023-05-22T04:28:48.350Z,16.40
2023-05-22T04:31:34.424Z,16.05
2023-05-22T04:34:21.865Z,16.22
2023-05-22T04:37:08.238Z,16.07
2023-05-22T04:39:58.289Z,16.24
2023-05-22T04:42:44.703Z,16.22
2023-05-22T04:45:30.962Z,16.20
2023-05-22T04:48:17.946Z,16.26
2023-05-22T04:51:04.730Z,16.22
2023-05-22T04:53:51.985Z,16.22
2023-05-22T04:56:41.173Z,16.22
2023-05-22T04:59:27.163Z,16.30
2023-05-22T05:02:12.897Z,16.29
2023-05-22T05:04:58.623Z,16.26
2023-05-22T05:07:44.627Z,16.47
2023-05-22T05:10:30.748Z,16.16
2023-05-22T05:13:16.714Z,16.35
2023-05-22T05:16:04.325Z,16.12
2023-05-22T05:18:51.888Z,16.25
2023-05-22T05:21:38.974Z,16.37
2023-05-22T05:24:25.091Z,16.43
2023-05-22T05:27:11.400Z,16.24
2023-05-22T05:29:57.775Z,16.44
2023-05-22T05:32:49.056Z,16.40
2023-05-22T05:35:45.877Z,16.51
2023-05-22T05:38:32.931Z,16.70
2023-05-22T05:41:19.180Z,16.88
2023-05-22T05:44:09.049Z,17.15
2023-05-22T05:46:54.957Z,17.44
2023-05-22T05:49:40.790Z,17.68
2023-05-22T05:52:32.542Z,17.95
2023-05-22T05:55:20.493Z,18.30
2023-05-22T05:58:07.855Z,18.50
2023-05-22T06:01:00.917Z,18.77
2023-05-22T06:03:47.216Z,18.82
2023-05-22T06:06:39.549Z,19.43
2023-05-22T06:09:34.405Z,19.78
2023-05-22T06:12:29.021Z,19.98
2023-05-22T06:15:14.779Z,20.05
2023-05-22T06:18:02.583Z,20.33
2023-05-22T06:20:48.659Z,20.42
2023-05-22T06:23:34.103Z,20.71
2023-05-22T06:26:20.490Z,20.71
2023-05-22T06:29:07.264Z,20.86
2023-05-22T06:31:55.212Z,21.10
2023-05-22T06:34:41.144Z,21.11
2023-05-22T06:37:28.007Z,21.17
2023-05-22T06:40:14.578Z,21.17
2023-05-22T06:43:08.359Z,21.42
2023-05-22T06:46:07.067Z,21.44
2023-05-22T06:49:10.212Z,21.36
2023-05-22T06:52:05.122Z,21.61
2023-05-22T06:54:51.584Z,21.76
2023-05-22T06:57:37.634Z,21.81
2023-05-22T07:00:24.239Z,21.92
2023-05-22T07:03:27.946Z,22.16
2023-05-22T07:06:43.193Z,22.34
2023-05-22T07:09:29.422Z,22.20
2023-05-22T07:12:15.477Z,22.38
2023-05-22T07:15:01.769Z,22.47
2023-05-22T07:17:50.390Z,22.49
2023-05-22T07:20:37.895Z,22.31
2023-05-22T07:23:34.158Z,22.50
2023-05-22T07:26:20.071Z,22.59
2023-05-22T07:29:14.542Z,22.70
2023-05-22T07:32:00.788Z,22.67
2023-05-22T07:34:48.112Z,22.83
2023-05-22T07:37:33.728Z,22.92
2023-05-22T07:40:20.094Z,23.01
2023-05-22T07:43:06.744Z,22.96
2023-05-22T07:45:54.306Z,22.88
2023-05-22T07:48:43.872Z,23.15
2023-05-22T07:51:30.085Z,23.17
2023-05-22T07:54:16.308Z,23.27
2023-05-22T07:57:04.708Z,23.51
2023-05-22T07:59:55.725Z,23.53
2023-05-22T08:02:41.992Z,23.59
2023-05-22T08:05:28.036Z,23.59
2023-05-22T08:08:14.286Z,23.65
2023-05-22T08:11:04.288Z,23.71
2023-05-22T08:13:50.561Z,23.63
2023-05-22T08:16:36.411Z,23.54
2023-05-22T08:19:22.915Z,23.59
2023-05-22T08:22:08.991Z,23.58
2023-05-22T08:24:54.818Z,23.51
2023-05-22T08:27:40.413Z,23.52
2023-05-22T08:30:26.125Z,23.47
2023-05-22T08:33:12.335Z,23.28
2023-05-22T08:35:58.552Z,23.53
2023-05-22T08:38:44.128Z,23.46
2023-05-22T08:41:30.393Z,23.62
2023-05-22T08:44:16.819Z,23.48
2023-05-22T08:47:09.867Z,23.37
2023-05-22T08:49:58.157Z,23.14
2023-05-22T08:52:51.137Z,22.95
2023-05-22T08:55:36.991Z,22.82
2023-05-22T08:58:23.305Z,22.85
2023-05-22T09:01:09.151Z,22.97
2023-05-22T09:04:00.461Z,23.00
2023-05-22T09:06:49.740Z,23.14
2023-05-22T09:09:39.451Z,23.25
2023-05-22T09:12:27.151Z,23.29
2023-05-22T09:15:13.886Z,23.26
2023-05-22T09:18:00.413Z,23.38
2023-05-22T09:20:46.105Z,23.51
2023-05-22T09:23:32.142Z,23.47
2023-05-22T09:26:17.755Z,23.47
2023-05-22T09:29:05.309Z,23.62
2023-05-22T09:31:51.841Z,23.70
2023-05-22T09:34:37.886Z,23.67
2023-05-22T09:37:23.762Z,23.47
2023-05-22T09:40:12.036Z,23.58
2023-05-22T09:42:57.824Z,23.49
2023-05-22T09:45:43.798Z,23.43
2023-05-22T09:48:36.046Z,23.26
2023-05-22T09:51:23.912Z,23.52
2023-05-22T09:54:12.221Z,23.54
2023-05-22T09:56:59.352Z,23.40
2023-05-22T09:59:53.994Z,23.41
2023-05-22T10:02:42.865Z,23.50
2023-05-22T10:05:31.490Z,23.36
2023-05-22T10:08:26.319Z,23.59
2023-05-22T10:11:12.965Z,23.63
2023-05-22T10:14:00.798Z,23.79
2023-05-22T10:16:47.407Z,23.64
2023-05-22T10:19:33.754Z,23.50
2023-05-22T10:22:22.556Z,23.53
2023-05-22T10:25:10.783Z,23.53
2023-05-22T10:27:57.755Z,23.50
2023-05-22T10:31:12.053Z,23.59
2023-05-22T10:34:40.674Z,23.76
2023-05-22T10:37:41.412Z,23.71
2023-05-22T10:40:32.681Z,23.89
2023-05-22T10:43:18.494Z,23.76
2023-05-22T10:46:06.490Z,23.78
2023-05-22T10:48:54.675Z,23.80
2023-05-22T10:51:40.513Z,23.72
2023-05-22T10:54:59.805Z,23.88
2023-05-22T10:57:45.809Z,23.88
2023-05-22T11:00:31.712Z,23.66
2023-05-22T11:03:21.323Z,23.53
2023-05-22T11:06:07.891Z,23.50
2023-05-22T11:08:55.851Z,23.51
2023-05-22T11:11:41.772Z,23.52
2023-05-22T11:14:27.862Z,23.27
2023-05-22T11:17:14.494Z,23.34
2023-05-22T11:20:01.818Z,23.23
2023-05-22T11:22:55.989Z,23.20
2023-05-22T11:25:42.128Z,23.00
2023-05-22T11:28:28.002Z,23.18
2023-05-22T11:31:14.336Z,23.25
2023-05-22T11:34:00.423Z,23.20
2023-05-22T11:36:47.652Z,23.17
2023-05-22T11:39:33.337Z,23.06
2023-05-22T11:42:19.972Z,23.00
2023-05-22T11:45:06.035Z,22.96
2023-05-22T11:47:52.078Z,23.02
2023-05-22T11:50:42.391Z,23.03
2023-05-22T11:53:31.291Z,23.09
2023-05-22T11:56:20.274Z,22.88
2023-05-22T11:59:06.304Z,22.71
2023-05-22T12:01:52.190Z,22.81
2023-05-22T12:04:38.208Z,22.83
2023-05-22T12:07:25.949Z,22.76
2023-05-22T12:10:14.327Z,22.77
2023-05-22T12:13:00.295Z,22.84
2023-05-22T12:15:46.199Z,22.75
2023-05-22T12:18:37.675Z,23.00
2023-05-22T12:21:23.878Z,22.96
2023-05-22T12:24:10.098Z,23.05
2023-05-22T12:26:56.694Z,22.97
2023-05-22T12:29:42.996Z,22.90
2023-05-22T12:32:29.687Z,22.88
2023-05-22T12:35:16.920Z,22.90
2023-05-22T12:38:03.151Z,22.75
2023-05-22T12:40:49.868Z,22.86
2023-05-22T12:43:35.803Z,22.73
2023-05-22T12:46:22.385Z,22.71
2023-05-22T12:49:08.610Z,22.65
2023-05-22T12:51:54.863Z,22.71
2023-05-22T12:54:40.883Z,22.75
2023-05-22T12:57:27.033Z,22.80
2023-05-22T13:00:14.002Z,22.79
2023-05-22T13:03:00.599Z,22.69
2023-05-22T13:05:47.030Z,22.67
2023-05-22T13:08:32.746Z,22.76
2023-05-22T13:11:20.092Z,22.80
2023-05-22T13:14:06.067Z,22.68
2023-05-22T13:16:51.939Z,22.80
2023-05-22T13:19:38.236Z,22.71
2023-05-22T13:22:25.018Z,22.66
2023-05-22T13:25:11.493Z,22.49
2023-05-22T13:27:58.669Z,22.51
2023-05-22T13:30:44.918Z,22.51
2023-05-22T13:33:31.708Z,22.53
2023-05-22T13:36:18.060Z,22.17
2023-05-22T13:39:04.001Z,22.43
2023-05-22T13:41:52.113Z,22.51
2023-05-22T13:44:37.893Z,22.39
2023-05-22T13:47:23.906Z,22.43
2023-05-22T13:50:10.485Z,22.45
2023-05-22T13:52:56.662Z,22.33
2023-05-22T13:55:42.462Z,22.36
2023-05-22T13:58:28.331Z,22.22
2023-05-22T14:01:14.114Z,22.56
2023-05-22T14:04:00.153Z,22.47
2023-05-22T14:06:46.554Z,22.50
2023-05-22T14:09:32.378Z,22.50
2023-05-22T14:12:18.140Z,22.47
2023-05-22T14:15:03.596Z,22.38
2023-05-22T14:17:50.733Z,22.35
2023-05-22T14:20:36.534Z,22.32
2023-05-22T14:23:22.796Z,22.26
2023-05-22T14:26:09.410Z,22.24
2023-05-22T14:28:55.400Z,22.33
2023-05-22T14:31:51.272Z,22.23
2023-05-22T14:34:37.810Z,22.27
2023-05-22T14:37:24.470Z,22.25
2023-05-22T14:40:10.969Z,22.35
2023-05-22T14:42:56.891Z,22.38
2023-05-22T14:45:43.603Z,22.31
2023-05-22T14:48:29.431Z,22.20
2023-05-22T14:51:15.700Z,22.15
2023-05-22T14:54:01.652Z,22.36
2023-05-22T14:56:47.371Z,22.25
2023-05-22T14:59:33.873Z,22.26
2023-05-22T15:02:20.000Z,22.31
2023-05-22T15:05:07.278Z,22.21
2023-05-22T15:07:53.637Z,22.24
2023-05-22T15:10:39.184Z,22.25
2023-05-22T15:13:25.266Z,22.21
2023-05-22T15:16:10.989Z,22.14
2023-05-22T15:18:56.937Z,22.14
2023-05-22T15:21:42.894Z,22.13
2023-05-22T15:24:30.917Z,22.14
2023-05-22T15:27:17.436Z,21.99
2023-05-22T15:30:04.478Z,22.19
2023-05-22T15:32:52.456Z,22.01
2023-05-22T15:35:38.930Z,22.13
2023-05-22T15:38:24.840Z,22.00
2023-05-22T15:41:10.702Z,21.93
2023-05-22T15:43:56.689Z,21.93
2023-05-22T15:46:42.471Z,21.99
2023-05-22T15:49:30.932Z,21.99
2023-05-22T15:52:17.976Z,21.86
2023-05-22T15:55:04.329Z,21.78
2023-05-22T15:57:50.588Z,21.78
2023-05-22T16:00:38.755Z,21.88
2023-05-22T16:03:25.278Z,21.88
2023-05-22T16:06:11.429Z,21.83
2023-05-22T16:08:57.222Z,21.86
2023-05-22T16:11:42.831Z,21.76
2023-05-22T16:14:29.651Z,21.84
2023-05-22T16:17:15.626Z,21.93
2023-05-22T16:20:01.798Z,21.65
2023-05-22T16:22:49.197Z,21.84
2023-05-22T16:25:35.439Z,21.44
2023-05-22T16:28:21.402Z,21.73
2023-05-22T16:31:07.715Z,21.75
2023-05-22T16:33:53.693Z,21.60
2023-05-22T16:36:39.785Z,21.76
2023-05-22T16:39:26.653Z,21.76
2023-05-22T16:42:13.021Z,21.70
2023-05-22T16:44:58.902Z,21.62
2023-05-22T16:47:44.646Z,21.65
2023-05-22T16:50:30.793Z,21.34
2023-05-22T16:53:17.200Z,21.50
2023-05-22T16:56:04.834Z,21.52
2023-05-22T16:58:50.576Z,21.30
2023-05-22T17:01:36.160Z,21.44
2023-05-22T17:21:09.262Z,21.30
2023-05-22T17:23:55.263Z,21.21
2023-05-22T17:26:41.048Z,20.93
2023-05-22T17:29:28.186Z,21.18
2023-05-22T17:32:14.499Z,21.16
2023-05-22T17:35:02.016Z,21.08
2023-05-22T17:37:48.212Z,20.76
2023-05-22T17:40:43.746Z,20.99
2023-05-22T17:43:35.046Z,20.92
2023-05-22T17:46:21.537Z,20.86
2023-05-22T17:49:07.206Z,20.62
2023-05-22T17:51:53.024Z,20.59
2023-05-22T17:54:38.957Z,20.73
2023-05-22T17:57:25.980Z,20.45
2023-05-22T18:00:33.066Z,20.59
2023-05-22T18:03:22.842Z,20.48
2023-05-22T18:06:08.569Z,20.19
2023-05-22T18:08:55.231Z,20.24
2023-05-22T18:11:51.944Z,20.20
2023-05-22T18:14:58.368Z,20.21
2023-05-22T18:17:43.976Z,19.92
2023-05-22T18:20:29.814Z,19.98
2023-05-22T18:27:03.565Z,19.66
2023-05-22T18:29:50.515Z,19.71
2023-05-22T18:32:37.380Z,19.65
2023-05-22T18:35:23.475Z,19.58
2023-05-22T18:38:09.235Z,19.52
2023-05-22T18:40:56.520Z,19.30
2023-05-22T18:43:43.318Z,19.35
2023-05-22T18:46:29.280Z,19.28
2023-05-22T18:49:15.207Z,19.16
2023-05-22T18:52:00.714Z,19.08
2023-05-22T18:54:46.877Z,19.00
2023-05-22T18:57:32.902Z,18.90
2023-05-22T19:00:19.017Z,18.89
2023-05-22T19:03:06.130Z,18.74
2023-05-22T19:05:52.628Z,18.55
2023-05-22T19:08:38.620Z,18.65
2023-05-22T19:11:24.513Z,18.60
2023-05-22T19:14:09.965Z,18.32
2023-05-22T19:16:55.833Z,18.45
2023-05-22T19:19:41.867Z,18.11
2023-05-22T19:22:28.122Z,18.11
2023-05-22T19:25:13.706Z,18.34
2023-05-22T19:28:00.394Z,18.20
2023-05-22T19:30:46.445Z,17.93
2023-05-22T19:33:33.052Z,18.19
2023-05-22T19:36:18.935Z,18.19
2023-05-22T19:39:04.767Z,18.01
2023-05-22T19:41:52.504Z,18.07
2023-05-22T19:44:39.006Z,17.99
2023-05-22T19:47:24.971Z,18.02
2023-05-22T19:50:11.806Z,18.04
2023-05-22T19:52:58.679Z,17.87
2023-05-22T19:55:44.827Z,17.96
2023-05-22T19:58:31.024Z,17.82
2023-05-22T20:01:17.571Z,17.74
2023-05-22T20:04:03.813Z,17.74
2023-05-22T20:06:50.899Z,17.66
2023-05-22T20:09:36.790Z,17.54
2023-05-22T20:12:22.593Z,17.19
2023-05-22T20:15:10.466Z,17.36
2023-05-22T20:17:58.103Z,17.36
2023-05-22T20:20:43.620Z,17.39
2023-05-22T20:23:29.480Z,17.44
2023-05-22T20:26:15.670Z,17.34
2023-05-22T20:29:01.817Z,17.39
2023-05-22T20:31:48.286Z,17.36
2023-05-22T20:34:35.442Z,17.30
2023-05-22T20:37:23.905Z,17.27
2023-05-22T20:40:10.340Z,17.35
2023-05-22T20:42:57.083Z,17.36
2023-05-22T20:45:45.993Z,17.31
2023-05-22T20:48:32.017Z,17.45
2023-05-22T20:51:20.489Z,17.49
2023-05-22T20:54:06.260Z,17.29
2023-05-22T20:56:52.811Z,17.11
2023-05-22T20:59:38.615Z,16.97
2023-05-22T21:02:24.411Z,17.11
2023-05-22T21:05:10.427Z,17.16
2023-05-22T21:07:56.292Z,16.89
2023-05-22T21:10:41.894Z,16.95
2023-05-22T21:13:27.987Z,17.00
2023-05-22T21:16:13.461Z,17.16
2023-05-22T21:18:59.610Z,17.16
2023-05-22T21:21:45.923Z,17.39
2023-05-22T21:24:32.702Z,17.33
2023-05-22T21:27:18.480Z,17.40
2023-05-22T21:30:04.750Z,17.42
2023-05-22T21:32:50.407Z,17.40
2023-05-22T21:35:37.163Z,17.37
2023-05-22T21:38:22.963Z,17.28
2023-05-22T21:41:08.783Z,17.25
2023-05-22T21:43:54.421Z,17.03
2023-05-22T21:46:40.414Z,16.99
2023-05-22T21:49:26.511Z,16.82
2023-05-22T21:52:12.498Z,16.67
2023-05-22T21:54:58.058Z,16.83
2023-05-22T21:57:45.616Z,16.94
2023-05-22T22:00:31.560Z,16.87
2023-05-22T22:03:17.631Z,16.65
2023-05-22T22:06:04.106Z,16.66
2023-05-22T22:08:49.876Z,16.54
2023-05-22T22:11:35.760Z,16.26
2023-05-22T22:14:21.658Z,16.36
2023-05-22T22:17:07.814Z,16.25
2023-05-22T22:19:56.922Z,16.10
2023-05-22T22:22:42.960Z,16.07
2023-05-22T22:25:28.830Z,15.85
2023-05-22T22:28:15.013Z,15.78
2023-05-22T22:31:01.524Z,16.06
2023-05-22T22:33:47.141Z,15.93
2023-05-22T22:36:34.073Z,15.81
2023-05-22T22:39:19.851Z,15.78
2023-05-22T22:42:06.323Z,15.85
2023-05-22T22:44:52.250Z,15.79
2023-05-22T22:47:39.520Z,15.83
2023-05-22T22:50:24.992Z,15.77
2023-05-22T22:53:10.843Z,15.79
2023-05-22T22:55:59.407Z,15.76
2023-05-22T22:58:45.357Z,15.63
2023-05-22T23:01:31.571Z,15.55
2023-05-22T23:04:17.774Z,15.26
2023-05-22T23:07:04.248Z,15.35
2023-05-22T23:09:50.525Z,15.24
2023-05-22T23:12:36.272Z,15.20
2023-05-22T23:15:22.865Z,15.10
2023-05-22T23:18:08.566Z,15.44
2023-05-22T23:20:54.749Z,15.47
2023-05-22T23:23:40.308Z,15.59
2023-05-22T23:26:27.772Z,15.44
2023-05-22T23:29:13.443Z,15.49
2023-05-22T23:31:59.511Z,15.39
2023-05-22T23:34:45.368Z,15.34
2023-05-22T23:37:31.350Z,15.26
2023-05-22T23:40:16.800Z,15.22
2023-05-22T23:43:03.228Z,15.23
2023-05-22T23:45:48.598Z,15.25
2023-05-22T23:48:34.910Z,15.68
2023-05-22T23:51:20.292Z,15.77
2023-05-22T23:54:06.217Z,15.78
2023-05-22T23:56:51.621Z,15.73
2023-05-22T23:59:37.484Z,15.56
